sensor_id;sensor_type;location;lat;lon;timestamp;temperature;humidity
21259;DHT22;10787;53.364;-1.480;2023-09-19T00:00:08;10.50;99.90
21259;DHT22;10787;53.364;-1.480;2023-09-19T00:02:53;10.50;99.90
21259;DHT22;10787;53.364;-1.480;2023-09-19T00:05:39;10.50;99.90
21259;DHT22;10787;53.364;-1.480;2023-09-19T00:08:23;10.50;99.90
21259;DHT22;10787;53.364;-1.480;2023-09-19T00:11:07;10.50;99.90
21259;DHT22;10787;53.364;-1.480;2023-09-19T00:13:55;10.60;99.90
21259;DHT22;10787;53.364;-1.480;2023-09-19T00:16:39;10.60;99.90
21259;DHT22;10787;53.364;-1.480;2023-09-19T00:19:25;10.70;99.90
21259;DHT22;10787;53.364;-1.480;2023-09-19T00:22:09;10.60;99.90
21259;DHT22;10787;53.364;-1.480;2023-09-19T00:24:53;10.60;99.90
21259;DHT22;10787;53.364;-1.480;2023-09-19T00:27:40;10.60;99.90
21259;DHT22;10787;53.364;-1.480;2023-09-19T00:30:26;10.60;99.90
21259;DHT22;10787;53.364;-1.480;2023-09-19T00:33:11;10.60;99.90
21259;DHT22;10787;53.364;-1.480;2023-09-19T00:36:00;10.60;99.90
21259;DHT22;10787;53.364;-1.480;2023-09-19T00:38:48;10.60;99.90
21259;DHT22;10787;53.364;-1.480;2023-09-19T00:41:32;10.60;99.90
21259;DHT22;10787;53.364;-1.480;2023-09-19T00:44:19;10.60;99.90
21259;DHT22;10787;53.364;-1.480;2023-09-19T00:47:05;10.70;99.90
21259;DHT22;10787;53.364;-1.480;2023-09-19T00:49:50;10.70;99.90
21259;DHT22;10787;53.364;-1.480;2023-09-19T00:52:35;10.80;99.90
21259;DHT22;10787;53.364;-1.480;2023-09-19T00:55:25;10.80;99.90
21259;DHT22;10787;53.364;-1.480;2023-09-19T00:58:10;10.80;99.90
21259;DHT22;10787;53.364;-1.480;2023-09-19T01:00:55;10.90;99.90
21259;DHT22;10787;53.364;-1.480;2023-09-19T01:03:41;11.00;99.90
21259;DHT22;10787;53.364;-1.480;2023-09-19T01:06:25;11.00;99.90
21259;DHT22;10787;53.364;-1.480;2023-09-19T01:09:10;11.10;99.90
21259;DHT22;10787;53.364;-1.480;2023-09-19T01:12:00;11.10;28.10
21259;DHT22;10787;53.364;-1.480;2023-09-19T01:14:55;11.10;99.90
21259;DHT22;10787;53.364;-1.480;2023-09-19T01:18:08;11.20;99.90
21259;DHT22;10787;53.364;-1.480;2023-09-19T01:21:29;11.20;99.90
21259;DHT22;10787;53.364;-1.480;2023-09-19T01:24:34;11.20;99.90
21259;DHT22;10787;53.364;-1.480;2023-09-19T01:30:57;11.20;99.90
21259;DHT22;10787;53.364;-1.480;2023-09-19T01:33:57;11.20;99.90
21259;DHT22;10787;53.364;-1.480;2023-09-19T01:36:41;11.20;99.90
21259;DHT22;10787;53.364;-1.480;2023-09-19T01:39:25;11.20;99.90
21259;DHT22;10787;53.364;-1.480;2023-09-19T01:45:15;11.20;99.90
21259;DHT22;10787;53.364;-1.480;2023-09-19T01:51:02;11.10;99.90
21259;DHT22;10787;53.364;-1.480;2023-09-19T01:54:03;11.20;99.90
21259;DHT22;10787;53.364;-1.480;2023-09-19T01:57:09;11.20;99.90
21259;DHT22;10787;53.364;-1.480;2023-09-19T02:00:10;11.10;99.90
21259;DHT22;10787;53.364;-1.480;2023-09-19T02:02:56;11.10;99.90
21259;DHT22;10787;53.364;-1.480;2023-09-19T02:05:49;11.10;99.90
21259;DHT22;10787;53.364;-1.480;2023-09-19T02:08:34;11.10;99.90
21259;DHT22;10787;53.364;-1.480;2023-09-19T02:11:18;11.10;99.90
21259;DHT22;10787;53.364;-1.480;2023-09-19T02:14:02;11.10;99.90
21259;DHT22;10787;53.364;-1.480;2023-09-19T02:16:48;11.20;99.90
21259;DHT22;10787;53.364;-1.480;2023-09-19T02:19:34;11.20;99.90
21259;DHT22;10787;53.364;-1.480;2023-09-19T02:22:19;11.20;99.90
21259;DHT22;10787;53.364;-1.480;2023-09-19T02:25:03;11.20;99.90
21259;DHT22;10787;53.364;-1.480;2023-09-19T02:27:49;11.20;99.90
21259;DHT22;10787;53.364;-1.480;2023-09-19T02:30:33;11.20;99.90
21259;DHT22;10787;53.364;-1.480;2023-09-19T02:33:17;11.20;99.90
21259;DHT22;10787;53.364;-1.480;2023-09-19T02:36:02;11.20;1.00
21259;DHT22;10787;53.364;-1.480;2023-09-19T02:38:49;11.20;99.90
21259;DHT22;10787;53.364;-1.480;2023-09-19T02:41:34;11.20;99.90
21259;DHT22;10787;53.364;-1.480;2023-09-19T02:44:18;11.20;99.90
21259;DHT22;10787;53.364;-1.480;2023-09-19T02:47:04;11.20;99.90
21259;DHT22;10787;53.364;-1.480;2023-09-19T02:49:48;11.20;99.90
21259;DHT22;10787;53.364;-1.480;2023-09-19T02:52:33;11.10;99.90
21259;DHT22;10787;53.364;-1.480;2023-09-19T02:55:18;11.10;1.00
21259;DHT22;10787;53.364;-1.480;2023-09-19T02:58:03;11.10;1.00
21259;DHT22;10787;53.364;-1.480;2023-09-19T03:00:49;11.10;99.90
21259;DHT22;10787;53.364;-1.480;2023-09-19T03:03:34;11.10;99.90
21259;DHT22;10787;53.364;-1.480;2023-09-19T03:06:18;11.10;99.90
21259;DHT22;10787;53.364;-1.480;2023-09-19T03:09:04;11.10;1.00
21259;DHT22;10787;53.364;-1.480;2023-09-19T03:11:55;11.10;99.90
21259;DHT22;10787;53.364;-1.480;2023-09-19T03:14:39;11.10;99.90
21259;DHT22;10787;53.364;-1.480;2023-09-19T03:17:23;11.20;99.90
21259;DHT22;10787;53.364;-1.480;2023-09-19T03:20:08;11.20;1.00
21259;DHT22;10787;53.364;-1.480;2023-09-19T03:22:52;11.20;1.00
21259;DHT22;10787;53.364;-1.480;2023-09-19T03:25:37;11.30;99.90
21259;DHT22;10787;53.364;-1.480;2023-09-19T03:28:21;11.30;99.90
21259;DHT22;10787;53.364;-1.480;2023-09-19T03:31:06;11.30;1.00
21259;DHT22;10787;53.364;-1.480;2023-09-19T03:33:51;11.40;1.00
21259;DHT22;10787;53.364;-1.480;2023-09-19T03:36:35;11.40;99.90
21259;DHT22;10787;53.364;-1.480;2023-09-19T03:39:20;11.40;1.00
21259;DHT22;10787;53.364;-1.480;2023-09-19T03:42:04;11.30;1.00
21259;DHT22;10787;53.364;-1.480;2023-09-19T03:44:51;11.30;1.00
21259;DHT22;10787;53.364;-1.480;2023-09-19T03:47:36;11.30;1.00
21259;DHT22;10787;53.364;-1.480;2023-09-19T03:50:20;11.30;1.00
21259;DHT22;10787;53.364;-1.480;2023-09-19T03:53:04;11.30;1.00
21259;DHT22;10787;53.364;-1.480;2023-09-19T03:55:51;11.30;1.00
21259;DHT22;10787;53.364;-1.480;2023-09-19T03:58:35;11.30;1.00
21259;DHT22;10787;53.364;-1.480;2023-09-19T04:01:23;11.30;1.00
21259;DHT22;10787;53.364;-1.480;2023-09-19T04:04:07;11.30;1.00
21259;DHT22;10787;53.364;-1.480;2023-09-19T04:06:55;11.30;1.00
21259;DHT22;10787;53.364;-1.480;2023-09-19T04:09:39;11.40;1.00
21259;DHT22;10787;53.364;-1.480;2023-09-19T04:12:23;11.40;1.00
21259;DHT22;10787;53.364;-1.480;2023-09-19T04:15:07;11.40;1.00
21259;DHT22;10787;53.364;-1.480;2023-09-19T04:17:52;11.30;1.00
21259;DHT22;10787;53.364;-1.480;2023-09-19T04:20:37;11.30;1.00
21259;DHT22;10787;53.364;-1.480;2023-09-19T04:23:21;11.30;1.00
21259;DHT22;10787;53.364;-1.480;2023-09-19T04:26:06;11.30;1.00
21259;DHT22;10787;53.364;-1.480;2023-09-19T04:28:50;11.30;1.00
21259;DHT22;10787;53.364;-1.480;2023-09-19T04:31:35;11.40;1.00
21259;DHT22;10787;53.364;-1.480;2023-09-19T04:34:21;11.30;1.00
21259;DHT22;10787;53.364;-1.480;2023-09-19T04:37:06;11.30;99.90
21259;DHT22;10787;53.364;-1.480;2023-09-19T04:39:50;11.30;99.90
21259;DHT22;10787;53.364;-1.480;2023-09-19T04:42:34;11.30;99.90
21259;DHT22;10787;53.364;-1.480;2023-09-19T04:45:19;11.30;99.90
21259;DHT22;10787;53.364;-1.480;2023-09-19T04:48:04;11.30;99.90
21259;DHT22;10787;53.364;-1.480;2023-09-19T04:50:50;11.30;1.00
21259;DHT22;10787;53.364;-1.480;2023-09-19T04:53:35;11.30;1.00
21259;DHT22;10787;53.364;-1.480;2023-09-19T04:56:19;11.30;1.00
21259;DHT22;10787;53.364;-1.480;2023-09-19T04:59:05;11.30;1.00
21259;DHT22;10787;53.364;-1.480;2023-09-19T05:01:49;11.30;1.00
21259;DHT22;10787;53.364;-1.480;2023-09-19T05:04:34;11.30;1.00
21259;DHT22;10787;53.364;-1.480;2023-09-19T05:07:19;11.30;1.00
21259;DHT22;10787;53.364;-1.480;2023-09-19T05:10:06;11.20;1.00
21259;DHT22;10787;53.364;-1.480;2023-09-19T05:12:53;11.20;8.60
21259;DHT22;10787;53.364;-1.480;2023-09-19T05:15:37;11.20;94.40
21259;DHT22;10787;53.364;-1.480;2023-09-19T05:18:22;11.10;99.90
21259;DHT22;10787;53.364;-1.480;2023-09-19T05:21:06;11.00;1.00
21259;DHT22;10787;53.364;-1.480;2023-09-19T05:23:52;10.90;1.00
21259;DHT22;10787;53.364;-1.480;2023-09-19T05:26:36;10.90;1.00
21259;DHT22;10787;53.364;-1.480;2023-09-19T05:29:20;10.80;99.90
21259;DHT22;10787;53.364;-1.480;2023-09-19T05:32:05;10.80;1.00
21259;DHT22;10787;53.364;-1.480;2023-09-19T05:34:49;10.80;99.90
21259;DHT22;10787;53.364;-1.480;2023-09-19T05:37:37;10.80;99.90
21259;DHT22;10787;53.364;-1.480;2023-09-19T05:40:21;10.80;99.90
21259;DHT22;10787;53.364;-1.480;2023-09-19T05:43:05;10.90;1.00
21259;DHT22;10787;53.364;-1.480;2023-09-19T05:45:49;10.90;99.90
21259;DHT22;10787;53.364;-1.480;2023-09-19T05:48:36;10.90;99.90
21259;DHT22;10787;53.364;-1.480;2023-09-19T05:51:20;10.90;99.90
21259;DHT22;10787;53.364;-1.480;2023-09-19T05:54:06;11.00;99.90
21259;DHT22;10787;53.364;-1.480;2023-09-19T05:56:51;11.00;99.90
21259;DHT22;10787;53.364;-1.480;2023-09-19T05:59:37;11.10;46.10
21259;DHT22;10787;53.364;-1.480;2023-09-19T06:02:24;11.30;99.90
21259;DHT22;10787;53.364;-1.480;2023-09-19T06:05:09;11.60;99.90
21259;DHT22;10787;53.364;-1.480;2023-09-19T06:07:54;11.80;99.90
21259;DHT22;10787;53.364;-1.480;2023-09-19T06:10:38;11.90;99.90
21259;DHT22;10787;53.364;-1.480;2023-09-19T06:13:22;12.00;99.90
21259;DHT22;10787;53.364;-1.480;2023-09-19T06:16:09;12.00;99.90
21259;DHT22;10787;53.364;-1.480;2023-09-19T06:18:53;12.00;99.90
21259;DHT22;10787;53.364;-1.480;2023-09-19T06:21:38;12.00;99.90
21259;DHT22;10787;53.364;-1.480;2023-09-19T06:24:23;12.10;99.90
21259;DHT22;10787;53.364;-1.480;2023-09-19T06:27:08;12.10;99.90
21259;DHT22;10787;53.364;-1.480;2023-09-19T06:29:52;12.10;99.90
21259;DHT22;10787;53.364;-1.480;2023-09-19T06:32:38;12.20;99.90
21259;DHT22;10787;53.364;-1.480;2023-09-19T06:35:22;12.20;99.90
21259;DHT22;10787;53.364;-1.480;2023-09-19T06:38:06;12.30;99.90
21259;DHT22;10787;53.364;-1.480;2023-09-19T06:40:53;12.30;99.90
21259;DHT22;10787;53.364;-1.480;2023-09-19T06:43:38;12.40;99.90
21259;DHT22;10787;53.364;-1.480;2023-09-19T06:46:23;12.40;99.90
21259;DHT22;10787;53.364;-1.480;2023-09-19T06:49:07;12.40;99.90
21259;DHT22;10787;53.364;-1.480;2023-09-19T06:51:54;12.40;99.90
21259;DHT22;10787;53.364;-1.480;2023-09-19T06:54:39;12.50;1.00
21259;DHT22;10787;53.364;-1.480;2023-09-19T06:57:24;12.50;1.00
21259;DHT22;10787;53.364;-1.480;2023-09-19T07:00:09;12.50;1.00
21259;DHT22;10787;53.364;-1.480;2023-09-19T07:03:04;12.60;1.00
21259;DHT22;10787;53.364;-1.480;2023-09-19T07:05:52;12.60;1.00
21259;DHT22;10787;53.364;-1.480;2023-09-19T07:08:36;12.70;1.00
21259;DHT22;10787;53.364;-1.480;2023-09-19T07:11:22;12.70;1.00
21259;DHT22;10787;53.364;-1.480;2023-09-19T07:14:07;12.80;1.00
21259;DHT22;10787;53.364;-1.480;2023-09-19T07:16:52;13.00;1.00
21259;DHT22;10787;53.364;-1.480;2023-09-19T07:19:37;13.00;1.00
21259;DHT22;10787;53.364;-1.480;2023-09-19T07:22:21;13.10;1.00
21259;DHT22;10787;53.364;-1.480;2023-09-19T07:25:05;13.20;1.00
21259;DHT22;10787;53.364;-1.480;2023-09-19T07:27:49;13.30;1.00
21259;DHT22;10787;53.364;-1.480;2023-09-19T07:30:38;13.50;13.70
21259;DHT22;10787;53.364;-1.480;2023-09-19T07:33:23;13.50;1.00
21259;DHT22;10787;53.364;-1.480;2023-09-19T07:36:11;13.60;1.00
21259;DHT22;10787;53.364;-1.480;2023-09-19T07:38:57;13.60;1.00
21259;DHT22;10787;53.364;-1.480;2023-09-19T07:41:42;13.60;1.00
21259;DHT22;10787;53.364;-1.480;2023-09-19T07:44:26;13.70;1.00
21259;DHT22;10787;53.364;-1.480;2023-09-19T07:47:10;13.80;1.00
21259;DHT22;10787;53.364;-1.480;2023-09-19T07:49:54;13.80;1.00
21259;DHT22;10787;53.364;-1.480;2023-09-19T07:52:39;13.90;1.00
21259;DHT22;10787;53.364;-1.480;2023-09-19T07:55:24;13.90;1.00
21259;DHT22;10787;53.364;-1.480;2023-09-19T07:58:09;14.00;1.00
21259;DHT22;10787;53.364;-1.480;2023-09-19T08:00:55;14.10;1.00
21259;DHT22;10787;53.364;-1.480;2023-09-19T08:03:39;14.10;1.00
21259;DHT22;10787;53.364;-1.480;2023-09-19T08:06:27;14.20;1.00
21259;DHT22;10787;53.364;-1.480;2023-09-19T08:09:14;14.20;1.00
21259;DHT22;10787;53.364;-1.480;2023-09-19T08:12:06;14.20;1.00
21259;DHT22;10787;53.364;-1.480;2023-09-19T08:14:52;14.30;1.00
21259;DHT22;10787;53.364;-1.480;2023-09-19T08:17:36;14.30;1.00
21259;DHT22;10787;53.364;-1.480;2023-09-19T08:20:20;14.30;1.00
21259;DHT22;10787;53.364;-1.480;2023-09-19T08:23:05;14.30;1.00
21259;DHT22;10787;53.364;-1.480;2023-09-19T08:25:55;14.40;99.90
21259;DHT22;10787;53.364;-1.480;2023-09-19T08:28:39;14.40;1.00
21259;DHT22;10787;53.364;-1.480;2023-09-19T08:31:24;14.40;1.00
21259;DHT22;10787;53.364;-1.480;2023-09-19T08:34:09;14.40;1.00
21259;DHT22;10787;53.364;-1.480;2023-09-19T08:36:55;14.60;99.90
21259;DHT22;10787;53.364;-1.480;2023-09-19T08:39:42;14.70;99.90
21259;DHT22;10787;53.364;-1.480;2023-09-19T08:42:27;14.80;99.90
21259;DHT22;10787;53.364;-1.480;2023-09-19T08:45:11;15.00;1.00
21259;DHT22;10787;53.364;-1.480;2023-09-19T08:48:23;15.00;99.90
21259;DHT22;10787;53.364;-1.480;2023-09-19T08:51:21;14.90;99.90
21259;DHT22;10787;53.364;-1.480;2023-09-19T08:54:33;14.90;99.90
21259;DHT22;10787;53.364;-1.480;2023-09-19T08:57:17;14.80;99.90
21259;DHT22;10787;53.364;-1.480;2023-09-19T09:00:06;14.80;1.00
21259;DHT22;10787;53.364;-1.480;2023-09-19T09:02:55;14.90;1.00
21259;DHT22;10787;53.364;-1.480;2023-09-19T09:05:41;14.90;1.00
21259;DHT22;10787;53.364;-1.480;2023-09-19T09:08:28;14.80;1.00
21259;DHT22;10787;53.364;-1.480;2023-09-19T09:11:15;14.80;1.00
21259;DHT22;10787;53.364;-1.480;2023-09-19T09:14:00;14.90;1.00
21259;DHT22;10787;53.364;-1.480;2023-09-19T09:16:45;15.00;1.00
21259;DHT22;10787;53.364;-1.480;2023-09-19T09:19:30;15.10;1.00
21259;DHT22;10787;53.364;-1.480;2023-09-19T09:22:14;15.10;1.00
21259;DHT22;10787;53.364;-1.480;2023-09-19T09:25:00;15.20;1.00
21259;DHT22;10787;53.364;-1.480;2023-09-19T09:27:59;15.30;99.90
21259;DHT22;10787;53.364;-1.480;2023-09-19T09:30:45;15.30;99.90
21259;DHT22;10787;53.364;-1.480;2023-09-19T09:33:30;15.50;99.90
21259;DHT22;10787;53.364;-1.480;2023-09-19T09:36:16;15.60;1.00
21259;DHT22;10787;53.364;-1.480;2023-09-19T09:39:02;15.70;1.00
21259;DHT22;10787;53.364;-1.480;2023-09-19T09:42:00;15.80;99.90
21259;DHT22;10787;53.364;-1.480;2023-09-19T09:44:44;15.90;99.90
21259;DHT22;10787;53.364;-1.480;2023-09-19T09:47:42;15.90;99.90
21259;DHT22;10787;53.364;-1.480;2023-09-19T09:50:35;16.00;1.00
21259;DHT22;10787;53.364;-1.480;2023-09-19T09:53:29;16.10;22.00
21259;DHT22;10787;53.364;-1.480;2023-09-19T09:56:16;16.20;1.00
21259;DHT22;10787;53.364;-1.480;2023-09-19T09:59:00;16.30;99.90
21259;DHT22;10787;53.364;-1.480;2023-09-19T10:01:49;16.30;99.90
21259;DHT22;10787;53.364;-1.480;2023-09-19T10:04:34;16.50;1.00
21259;DHT22;10787;53.364;-1.480;2023-09-19T10:07:38;16.50;99.90
21259;DHT22;10787;53.364;-1.480;2023-09-19T10:10:40;16.60;99.90
21259;DHT22;10787;53.364;-1.480;2023-09-19T10:13:26;16.80;99.90
21259;DHT22;10787;53.364;-1.480;2023-09-19T10:16:13;16.90;1.00
21259;DHT22;10787;53.364;-1.480;2023-09-19T10:19:02;17.00;99.90
21259;DHT22;10787;53.364;-1.480;2023-09-19T10:21:50;17.20;1.00
21259;DHT22;10787;53.364;-1.480;2023-09-19T10:24:35;17.50;99.90
21259;DHT22;10787;53.364;-1.480;2023-09-19T10:27:23;17.60;1.00
21259;DHT22;10787;53.364;-1.480;2023-09-19T10:30:11;17.80;1.00
21259;DHT22;10787;53.364;-1.480;2023-09-19T10:33:00;17.90;99.90
21259;DHT22;10787;53.364;-1.480;2023-09-19T10:35:46;18.00;21.30
21259;DHT22;10787;53.364;-1.480;2023-09-19T10:38:31;18.10;1.00
21259;DHT22;10787;53.364;-1.480;2023-09-19T10:41:19;18.30;1.00
21259;DHT22;10787;53.364;-1.480;2023-09-19T10:44:05;18.40;1.00
21259;DHT22;10787;53.364;-1.480;2023-09-19T10:46:50;18.50;1.00
21259;DHT22;10787;53.364;-1.480;2023-09-19T10:49:46;18.60;1.00
21259;DHT22;10787;53.364;-1.480;2023-09-19T10:52:31;18.70;1.00
21259;DHT22;10787;53.364;-1.480;2023-09-19T10:55:19;18.80;99.90
21259;DHT22;10787;53.364;-1.480;2023-09-19T10:58:06;19.00;99.90
21259;DHT22;10787;53.364;-1.480;2023-09-19T11:01:00;19.20;99.90
21259;DHT22;10787;53.364;-1.480;2023-09-19T11:04:22;19.40;1.00
21259;DHT22;10787;53.364;-1.480;2023-09-19T11:07:13;19.60;1.00
21259;DHT22;10787;53.364;-1.480;2023-09-19T11:10:00;19.80;1.00
21259;DHT22;10787;53.364;-1.480;2023-09-19T11:27:11;20.30;1.00
21259;DHT22;10787;53.364;-1.480;2023-09-19T11:30:26;20.20;1.00
21259;DHT22;10787;53.364;-1.480;2023-09-19T11:33:17;20.20;1.00
21259;DHT22;10787;53.364;-1.480;2023-09-19T11:36:16;20.10;1.00
21259;DHT22;10787;53.364;-1.480;2023-09-19T11:39:02;20.00;1.00
21259;DHT22;10787;53.364;-1.480;2023-09-19T11:41:53;20.00;1.00
21259;DHT22;10787;53.364;-1.480;2023-09-19T11:44:40;20.20;1.00
21259;DHT22;10787;53.364;-1.480;2023-09-19T11:47:25;20.50;1.00
21259;DHT22;10787;53.364;-1.480;2023-09-19T11:50:10;20.50;1.00
21259;DHT22;10787;53.364;-1.480;2023-09-19T11:52:56;20.50;1.00
21259;DHT22;10787;53.364;-1.480;2023-09-19T11:55:41;20.50;1.00
21259;DHT22;10787;53.364;-1.480;2023-09-19T11:58:28;20.30;1.00
21259;DHT22;10787;53.364;-1.480;2023-09-19T12:01:14;20.20;1.00
21259;DHT22;10787;53.364;-1.480;2023-09-19T12:04:05;20.00;1.00
21259;DHT22;10787;53.364;-1.480;2023-09-19T12:06:56;19.90;1.00
21259;DHT22;10787;53.364;-1.480;2023-09-19T12:09:47;19.90;1.00
21259;DHT22;10787;53.364;-1.480;2023-09-19T12:12:32;19.90;1.00
21259;DHT22;10787;53.364;-1.480;2023-09-19T12:15:23;19.80;1.00
21259;DHT22;10787;53.364;-1.480;2023-09-19T12:18:31;19.60;1.00
21259;DHT22;10787;53.364;-1.480;2023-09-19T12:21:23;19.40;99.90
21259;DHT22;10787;53.364;-1.480;2023-09-19T12:24:12;19.20;99.90
21259;DHT22;10787;53.364;-1.480;2023-09-19T12:27:02;19.10;1.00
21259;DHT22;10787;53.364;-1.480;2023-09-19T12:29:49;19.10;1.00
21259;DHT22;10787;53.364;-1.480;2023-09-19T12:32:36;19.10;1.00
21259;DHT22;10787;53.364;-1.480;2023-09-19T12:35:32;19.30;1.00
21259;DHT22;10787;53.364;-1.480;2023-09-19T12:38:26;19.50;1.00
21259;DHT22;10787;53.364;-1.480;2023-09-19T12:41:13;19.80;99.90
21259;DHT22;10787;53.364;-1.480;2023-09-19T12:43:58;20.30;99.90
21259;DHT22;10787;53.364;-1.480;2023-09-19T12:46:44;20.60;1.00
21259;DHT22;10787;53.364;-1.480;2023-09-19T12:49:29;20.50;1.00
21259;DHT22;10787;53.364;-1.480;2023-09-19T12:52:14;20.20;1.00
21259;DHT22;10787;53.364;-1.480;2023-09-19T12:54:58;20.10;1.00
21259;DHT22;10787;53.364;-1.480;2023-09-19T12:58:16;19.90;1.00
21259;DHT22;10787;53.364;-1.480;2023-09-19T13:01:14;19.90;1.00
21259;DHT22;10787;53.364;-1.480;2023-09-19T13:04:20;19.80;1.00
21259;DHT22;10787;53.364;-1.480;2023-09-19T13:07:44;19.70;1.00
21259;DHT22;10787;53.364;-1.480;2023-09-19T13:10:29;19.90;1.00
21259;DHT22;10787;53.364;-1.480;2023-09-19T13:13:23;20.10;1.00
21259;DHT22;10787;53.364;-1.480;2023-09-19T13:16:11;20.30;1.00
21259;DHT22;10787;53.364;-1.480;2023-09-19T13:18:58;20.60;1.00
21259;DHT22;10787;53.364;-1.480;2023-09-19T13:21:43;20.70;1.00
21259;DHT22;10787;53.364;-1.480;2023-09-19T13:24:33;20.80;1.00
21259;DHT22;10787;53.364;-1.480;2023-09-19T13:27:19;20.90;1.00
21259;DHT22;10787;53.364;-1.480;2023-09-19T13:30:03;21.00;1.00
21259;DHT22;10787;53.364;-1.480;2023-09-19T13:32:49;21.10;1.00
21259;DHT22;10787;53.364;-1.480;2023-09-19T13:35:33;21.10;1.00
21259;DHT22;10787;53.364;-1.480;2023-09-19T13:38:18;21.40;1.00
21259;DHT22;10787;53.364;-1.480;2023-09-19T13:41:06;21.20;1.00
21259;DHT22;10787;53.364;-1.480;2023-09-19T13:43:50;21.20;1.00
21259;DHT22;10787;53.364;-1.480;2023-09-19T13:46:35;20.90;1.00
21259;DHT22;10787;53.364;-1.480;2023-09-19T13:49:19;20.90;1.00
21259;DHT22;10787;53.364;-1.480;2023-09-19T13:52:05;20.90;1.00
21259;DHT22;10787;53.364;-1.480;2023-09-19T13:54:52;21.10;1.00
21259;DHT22;10787;53.364;-1.480;2023-09-19T13:57:42;21.50;1.00
21259;DHT22;10787;53.364;-1.480;2023-09-19T14:00:27;21.30;1.00
21259;DHT22;10787;53.364;-1.480;2023-09-19T14:03:12;21.00;1.00
21259;DHT22;10787;53.364;-1.480;2023-09-19T14:05:56;20.90;1.00
21259;DHT22;10787;53.364;-1.480;2023-09-19T14:08:41;20.70;1.00
21259;DHT22;10787;53.364;-1.480;2023-09-19T14:11:25;20.50;1.00
21259;DHT22;10787;53.364;-1.480;2023-09-19T14:14:10;20.20;1.00
21259;DHT22;10787;53.364;-1.480;2023-09-19T14:16:54;20.00;1.00
21259;DHT22;10787;53.364;-1.480;2023-09-19T14:19:41;19.90;1.00
21259;DHT22;10787;53.364;-1.480;2023-09-19T14:22:27;19.90;1.00
21259;DHT22;10787;53.364;-1.480;2023-09-19T14:25:11;19.80;1.00
21259;DHT22;10787;53.364;-1.480;2023-09-19T14:27:56;19.70;1.00
21259;DHT22;10787;53.364;-1.480;2023-09-19T14:30:40;19.80;1.00
21259;DHT22;10787;53.364;-1.480;2023-09-19T14:33:24;20.00;1.00
21259;DHT22;10787;53.364;-1.480;2023-09-19T14:36:09;20.20;1.00
21259;DHT22;10787;53.364;-1.480;2023-09-19T14:38:55;20.70;1.00
21259;DHT22;10787;53.364;-1.480;2023-09-19T14:41:41;20.70;1.00
21259;DHT22;10787;53.364;-1.480;2023-09-19T14:44:25;20.40;1.00
21259;DHT22;10787;53.364;-1.480;2023-09-19T14:47:10;20.30;1.00
21259;DHT22;10787;53.364;-1.480;2023-09-19T14:50:14;20.20;1.00
21259;DHT22;10787;53.364;-1.480;2023-09-19T14:52:59;20.10;1.00
21259;DHT22;10787;53.364;-1.480;2023-09-19T14:55:46;20.10;1.00
21259;DHT22;10787;53.364;-1.480;2023-09-19T14:58:32;20.00;1.00
21259;DHT22;10787;53.364;-1.480;2023-09-19T15:01:17;19.90;1.00
21259;DHT22;10787;53.364;-1.480;2023-09-19T15:04:01;19.70;1.00
21259;DHT22;10787;53.364;-1.480;2023-09-19T15:06:46;19.60;1.00
21259;DHT22;10787;53.364;-1.480;2023-09-19T15:09:30;19.40;1.00
21259;DHT22;10787;53.364;-1.480;2023-09-19T15:12:17;19.40;1.00
21259;DHT22;10787;53.364;-1.480;2023-09-19T15:15:01;19.30;1.00
21259;DHT22;10787;53.364;-1.480;2023-09-19T15:17:46;19.20;1.00
21259;DHT22;10787;53.364;-1.480;2023-09-19T15:20:30;19.20;1.00
21259;DHT22;10787;53.364;-1.480;2023-09-19T15:23:15;19.20;1.00
21259;DHT22;10787;53.364;-1.480;2023-09-19T15:26:12;19.10;1.00
21259;DHT22;10787;53.364;-1.480;2023-09-19T15:28:56;19.10;1.00
21259;DHT22;10787;53.364;-1.480;2023-09-19T15:31:40;19.10;1.00
21259;DHT22;10787;53.364;-1.480;2023-09-19T15:34:24;19.20;1.00
21259;DHT22;10787;53.364;-1.480;2023-09-19T15:37:09;19.10;1.00
21259;DHT22;10787;53.364;-1.480;2023-09-19T15:39:53;19.10;1.00
21259;DHT22;10787;53.364;-1.480;2023-09-19T15:42:37;19.10;1.00
21259;DHT22;10787;53.364;-1.480;2023-09-19T15:45:23;19.10;1.00
21259;DHT22;10787;53.364;-1.480;2023-09-19T15:48:07;19.20;1.00
21259;DHT22;10787;53.364;-1.480;2023-09-19T15:50:52;19.40;1.00
21259;DHT22;10787;53.364;-1.480;2023-09-19T15:53:45;19.30;1.00
21259;DHT22;10787;53.364;-1.480;2023-09-19T15:56:29;19.40;1.00
21259;DHT22;10787;53.364;-1.480;2023-09-19T15:59:13;19.40;1.00
21259;DHT22;10787;53.364;-1.480;2023-09-19T16:01:59;19.40;1.00
21259;DHT22;10787;53.364;-1.480;2023-09-19T16:04:43;19.40;1.00
21259;DHT22;10787;53.364;-1.480;2023-09-19T16:07:28;19.30;1.00
21259;DHT22;10787;53.364;-1.480;2023-09-19T16:10:13;19.30;1.00
21259;DHT22;10787;53.364;-1.480;2023-09-19T16:12:58;19.20;1.00
21259;DHT22;10787;53.364;-1.480;2023-09-19T16:15:42;19.10;1.00
21259;DHT22;10787;53.364;-1.480;2023-09-19T16:18:28;19.10;1.00
21259;DHT22;10787;53.364;-1.480;2023-09-19T16:21:13;19.10;1.00
21259;DHT22;10787;53.364;-1.480;2023-09-19T16:23:59;19.20;1.00
21259;DHT22;10787;53.364;-1.480;2023-09-19T16:26:43;19.20;1.00
21259;DHT22;10787;53.364;-1.480;2023-09-19T16:29:28;19.20;1.00
21259;DHT22;10787;53.364;-1.480;2023-09-19T16:32:12;19.10;1.00
21259;DHT22;10787;53.364;-1.480;2023-09-19T16:34:56;19.00;1.00
21259;DHT22;10787;53.364;-1.480;2023-09-19T16:37:52;19.00;1.00
21259;DHT22;10787;53.364;-1.480;2023-09-19T16:40:36;18.90;1.00
21259;DHT22;10787;53.364;-1.480;2023-09-19T16:43:21;18.90;1.00
21259;DHT22;10787;53.364;-1.480;2023-09-19T16:46:07;18.90;1.00
21259;DHT22;10787;53.364;-1.480;2023-09-19T16:48:55;19.00;1.00
21259;DHT22;10787;53.364;-1.480;2023-09-19T16:51:39;18.90;1.00
21259;DHT22;10787;53.364;-1.480;2023-09-19T16:54:25;18.90;1.00
21259;DHT22;10787;53.364;-1.480;2023-09-19T16:57:10;19.00;1.00
21259;DHT22;10787;53.364;-1.480;2023-09-19T16:59:54;18.90;1.00
21259;DHT22;10787;53.364;-1.480;2023-09-19T17:02:39;18.90;1.00
21259;DHT22;10787;53.364;-1.480;2023-09-19T17:05:24;18.90;1.00
21259;DHT22;10787;53.364;-1.480;2023-09-19T17:08:09;18.80;1.00
21259;DHT22;10787;53.364;-1.480;2023-09-19T17:11:04;18.80;1.00
21259;DHT22;10787;53.364;-1.480;2023-09-19T17:13:51;18.70;1.00
21259;DHT22;10787;53.364;-1.480;2023-09-19T17:16:38;18.70;1.00
21259;DHT22;10787;53.364;-1.480;2023-09-19T17:19:22;18.50;1.00
21259;DHT22;10787;53.364;-1.480;2023-09-19T17:22:07;18.50;1.00
21259;DHT22;10787;53.364;-1.480;2023-09-19T17:24:52;18.50;1.00
21259;DHT22;10787;53.364;-1.480;2023-09-19T17:27:36;18.40;1.00
21259;DHT22;10787;53.364;-1.480;2023-09-19T17:30:21;18.30;1.00
21259;DHT22;10787;53.364;-1.480;2023-09-19T17:33:06;18.30;1.00
21259;DHT22;10787;53.364;-1.480;2023-09-19T17:35:50;18.20;1.00
21259;DHT22;10787;53.364;-1.480;2023-09-19T17:38:38;18.20;1.00
21259;DHT22;10787;53.364;-1.480;2023-09-19T17:41:25;18.20;1.00
21259;DHT22;10787;53.364;-1.480;2023-09-19T17:44:10;18.20;1.00
21259;DHT22;10787;53.364;-1.480;2023-09-19T17:47:00;18.20;1.00
21259;DHT22;10787;53.364;-1.480;2023-09-19T17:49:51;18.20;1.00
21259;DHT22;10787;53.364;-1.480;2023-09-19T17:52:35;18.20;1.00